sensor_id;sensor_type;location;lat;lon;timestamp;temperature;humidity
27188;DHT22;14708;50.872;5.306;2023-02-15T00:01:41;20.30;53.30
27188;DHT22;14708;50.872;5.306;2023-02-15T00:04:08;20.30;53.70
27188;DHT22;14708;50.872;5.306;2023-02-15T00:06:34;20.20;53.50
27188;DHT22;14708;50.872;5.306;2023-02-15T00:09:00;20.20;53.70
27188;DHT22;14708;50.872;5.306;2023-02-15T00:11:25;20.20;53.70
27188;DHT22;14708;50.872;5.306;2023-02-15T00:14:22;20.20;53.90
27188;DHT22;14708;50.872;5.306;2023-02-15T00:16:50;20.20;53.90
27188;DHT22;14708;50.872;5.306;2023-02-15T00:19:19;20.20;53.90
27188;DHT22;14708;50.872;5.306;2023-02-15T00:21:47;20.10;53.80
27188;DHT22;14708;50.872;5.306;2023-02-15T00:24:14;20.10;53.90
27188;DHT22;14708;50.872;5.306;2023-02-15T00:26:41;20.10;54.00
27188;DHT22;14708;50.872;5.306;2023-02-15T00:29:08;20.20;54.20
27188;DHT22;14708;50.872;5.306;2023-02-15T00:43:42;20.00;54.20
27188;DHT22;14708;50.872;5.306;2023-02-15T00:46:08;20.00;54.30
27188;DHT22;14708;50.872;5.306;2023-02-15T00:48:33;20.00;54.30
27188;DHT22;14708;50.872;5.306;2023-02-15T00:50:59;20.00;54.30
27188;DHT22;14708;50.872;5.306;2023-02-15T00:56:32;19.90;54.10
27188;DHT22;14708;50.872;5.306;2023-02-15T00:58:58;19.90;54.40
27188;DHT22;14708;50.872;5.306;2023-02-15T01:01:24;19.90;54.10
27188;DHT22;14708;50.872;5.306;2023-02-15T01:03:51;19.90;54.30
27188;DHT22;14708;50.872;5.306;2023-02-15T01:19:44;19.80;54.30
27188;DHT22;14708;50.872;5.306;2023-02-15T01:22:09;19.80;54.60
27188;DHT22;14708;50.872;5.306;2023-02-15T01:24:35;19.80;54.40
27188;DHT22;14708;50.872;5.306;2023-02-15T01:27:01;19.70;54.50
27188;DHT22;14708;50.872;5.306;2023-02-15T01:29:31;19.70;54.50
27188;DHT22;14708;50.872;5.306;2023-02-15T01:31:57;19.80;54.50
27188;DHT22;14708;50.872;5.306;2023-02-15T01:34:22;19.70;54.60
27188;DHT22;14708;50.872;5.306;2023-02-15T01:36:48;19.70;54.50
27188;DHT22;14708;50.872;5.306;2023-02-15T01:39:14;19.70;54.40
27188;DHT22;14708;50.872;5.306;2023-02-15T01:41:40;19.70;54.40
27188;DHT22;14708;50.872;5.306;2023-02-15T01:47:22;19.70;54.80
27188;DHT22;14708;50.872;5.306;2023-02-15T01:49:51;19.70;54.30
27188;DHT22;14708;50.872;5.306;2023-02-15T01:52:20;19.60;54.50
27188;DHT22;14708;50.872;5.306;2023-02-15T01:54:52;19.60;54.40
27188;DHT22;14708;50.872;5.306;2023-02-15T01:57:22;19.60;54.30
27188;DHT22;14708;50.872;5.306;2023-02-15T01:59:53;19.60;54.40
27188;DHT22;14708;50.872;5.306;2023-02-15T02:02:19;19.60;54.40
27188;DHT22;14708;50.872;5.306;2023-02-15T02:08:14;19.60;54.50
27188;DHT22;14708;50.872;5.306;2023-02-15T02:10:40;19.60;54.40
27188;DHT22;14708;50.872;5.306;2023-02-15T02:13:06;19.50;54.60
27188;DHT22;14708;50.872;5.306;2023-02-15T02:18:14;19.50;54.40
27188;DHT22;14708;50.872;5.306;2023-02-15T02:21:16;19.50;54.40
27188;DHT22;14708;50.872;5.306;2023-02-15T02:29:26;19.50;54.60
27188;DHT22;14708;50.872;5.306;2023-02-15T02:41:50;19.40;54.60
27188;DHT22;14708;50.872;5.306;2023-02-15T02:44:34;19.40;54.50
27188;DHT22;14708;50.872;5.306;2023-02-15T02:47:24;19.40;54.40
27188;DHT22;14708;50.872;5.306;2023-02-15T03:10:04;19.30;54.30
27188;DHT22;14708;50.872;5.306;2023-02-15T03:12:36;19.30;54.50
27188;DHT22;14708;50.872;5.306;2023-02-15T03:15:10;19.30;54.40
27188;DHT22;14708;50.872;5.306;2023-02-15T03:17:45;19.30;54.60
27188;DHT22;14708;50.872;5.306;2023-02-15T03:20:32;19.30;54.50
27188;DHT22;14708;50.872;5.306;2023-02-15T03:23:02;19.20;54.40
27188;DHT22;14708;50.872;5.306;2023-02-15T03:25:52;19.30;54.50
27188;DHT22;14708;50.872;5.306;2023-02-15T03:28:29;19.20;54.60
27188;DHT22;14708;50.872;5.306;2023-02-15T03:31:00;19.20;54.50
27188;DHT22;14708;50.872;5.306;2023-02-15T03:33:58;19.20;54.80
27188;DHT22;14708;50.872;5.306;2023-02-15T03:36:39;19.20;54.30
27188;DHT22;14708;50.872;5.306;2023-02-15T03:41:45;19.20;54.40
27188;DHT22;14708;50.872;5.306;2023-02-15T03:57:54;19.10;54.20
27188;DHT22;14708;50.872;5.306;2023-02-15T04:00:42;19.10;54.20
27188;DHT22;14708;50.872;5.306;2023-02-15T04:03:36;19.10;54.30
27188;DHT22;14708;50.872;5.306;2023-02-15T04:06:03;19.10;54.50
27188;DHT22;14708;50.872;5.306;2023-02-15T04:08:29;19.10;54.50
27188;DHT22;14708;50.872;5.306;2023-02-15T04:11:14;19.10;54.40
27188;DHT22;14708;50.872;5.306;2023-02-15T04:13:39;19.10;54.40
27188;DHT22;14708;50.872;5.306;2023-02-15T04:22:48;19.00;54.20
27188;DHT22;14708;50.872;5.306;2023-02-15T04:25:33;19.10;54.40
27188;DHT22;14708;50.872;5.306;2023-02-15T04:27:58;19.10;54.40
27188;DHT22;14708;50.872;5.306;2023-02-15T04:30:25;19.00;54.40
27188;DHT22;14708;50.872;5.306;2023-02-15T04:36:13;19.00;54.30
27188;DHT22;14708;50.872;5.306;2023-02-15T04:38:39;19.00;54.20
27188;DHT22;14708;50.872;5.306;2023-02-15T04:41:04;19.00;54.20
27188;DHT22;14708;50.872;5.306;2023-02-15T04:43:30;19.00;54.20
27188;DHT22;14708;50.872;5.306;2023-02-15T04:45:55;19.00;54.30
27188;DHT22;14708;50.872;5.306;2023-02-15T04:48:30;19.00;54.30
27188;DHT22;14708;50.872;5.306;2023-02-15T04:50:56;19.00;54.20
27188;DHT22;14708;50.872;5.306;2023-02-15T04:53:21;18.90;54.30
27188;DHT22;14708;50.872;5.306;2023-02-15T04:55:47;18.90;54.50
27188;DHT22;14708;50.872;5.306;2023-02-15T04:58:13;19.00;54.20
27188;DHT22;14708;50.872;5.306;2023-02-15T05:00:58;19.00;54.20
27188;DHT22;14708;50.872;5.306;2023-02-15T05:03:24;18.90;54.10
27188;DHT22;14708;50.872;5.306;2023-02-15T05:05:50;18.90;54.00
27188;DHT22;14708;50.872;5.306;2023-02-15T05:08:16;18.90;54.00
27188;DHT22;14708;50.872;5.306;2023-02-15T05:10:42;19.00;54.00
27188;DHT22;14708;50.872;5.306;2023-02-15T05:13:07;18.90;54.00
27188;DHT22;14708;50.872;5.306;2023-02-15T05:15:33;18.90;53.90
27188;DHT22;14708;50.872;5.306;2023-02-15T05:17:59;18.90;53.90
27188;DHT22;14708;50.872;5.306;2023-02-15T05:20:25;18.90;53.90
27188;DHT22;14708;50.872;5.306;2023-02-15T05:22:53;18.90;53.90
27188;DHT22;14708;50.872;5.306;2023-02-15T05:25:20;18.90;54.00
27188;DHT22;14708;50.872;5.306;2023-02-15T05:28:04;18.90;54.10
27188;DHT22;14708;50.872;5.306;2023-02-15T05:30:49;18.90;54.20
27188;DHT22;14708;50.872;5.306;2023-02-15T05:33:15;18.80;54.10
27188;DHT22;14708;50.872;5.306;2023-02-15T05:35:41;18.80;53.90
27188;DHT22;14708;50.872;5.306;2023-02-15T05:38:10;18.80;54.00
27188;DHT22;14708;50.872;5.306;2023-02-15T05:40:35;18.80;53.90
27188;DHT22;14708;50.872;5.306;2023-02-15T05:43:01;18.80;54.00
27188;DHT22;14708;50.872;5.306;2023-02-15T05:45:26;18.80;53.90
27188;DHT22;14708;50.872;5.306;2023-02-15T05:47:52;18.80;53.90
27188;DHT22;14708;50.872;5.306;2023-02-15T05:53:40;18.80;54.00
27188;DHT22;14708;50.872;5.306;2023-02-15T05:56:08;18.80;54.00
27188;DHT22;14708;50.872;5.306;2023-02-15T05:58:38;18.80;54.00
27188;DHT22;14708;50.872;5.306;2023-02-15T06:01:22;18.70;54.10
27188;DHT22;14708;50.872;5.306;2023-02-15T06:03:48;18.70;53.90
27188;DHT22;14708;50.872;5.306;2023-02-15T06:06:24;18.70;54.00
27188;DHT22;14708;50.872;5.306;2023-02-15T06:08:49;18.70;54.00
27188;DHT22;14708;50.872;5.306;2023-02-15T06:11:15;18.70;53.90
27188;DHT22;14708;50.872;5.306;2023-02-15T06:20:25;18.70;54.00
27188;DHT22;14708;50.872;5.306;2023-02-15T06:22:50;18.70;53.90
27188;DHT22;14708;50.872;5.306;2023-02-15T06:25:16;18.70;54.00
27188;DHT22;14708;50.872;5.306;2023-02-15T06:27:44;18.60;54.10
27188;DHT22;14708;50.872;5.306;2023-02-15T06:36:53;18.60;54.00
27188;DHT22;14708;50.872;5.306;2023-02-15T06:39:19;18.60;54.00
27188;DHT22;14708;50.872;5.306;2023-02-15T06:41:45;18.60;54.00
27188;DHT22;14708;50.872;5.306;2023-02-15T06:44:10;18.60;54.00
27188;DHT22;14708;50.872;5.306;2023-02-15T06:46:54;18.60;54.20
27188;DHT22;14708;50.872;5.306;2023-02-15T06:49:20;18.60;53.90
27188;DHT22;14708;50.872;5.306;2023-02-15T06:51:45;18.60;54.10
27188;DHT22;14708;50.872;5.306;2023-02-15T06:54:11;18.60;54.10
27188;DHT22;14708;50.872;5.306;2023-02-15T06:56:37;18.60;54.10
27188;DHT22;14708;50.872;5.306;2023-02-15T06:59:03;18.60;54.00
27188;DHT22;14708;50.872;5.306;2023-02-15T07:01:29;18.60;54.00
27188;DHT22;14708;50.872;5.306;2023-02-15T07:10:57;18.60;54.00
27188;DHT22;14708;50.872;5.306;2023-02-15T07:13:42;18.60;53.90
27188;DHT22;14708;50.872;5.306;2023-02-15T07:16:09;18.60;53.20
27188;DHT22;14708;50.872;5.306;2023-02-15T07:18:35;18.70;53.40
27188;DHT22;14708;50.872;5.306;2023-02-15T07:21:01;18.70;52.60
27188;DHT22;14708;50.872;5.306;2023-02-15T07:23:31;19.00;50.80
27188;DHT22;14708;50.872;5.306;2023-02-15T07:26:00;19.00;52.20
27188;DHT22;14708;50.872;5.306;2023-02-15T07:28:27;19.00;52.30
27188;DHT22;14708;50.872;5.306;2023-02-15T07:30:52;19.40;51.10
27188;DHT22;14708;50.872;5.306;2023-02-15T07:33:18;19.60;50.10
27188;DHT22;14708;50.872;5.306;2023-02-15T07:35:51;19.80;49.20
27188;DHT22;14708;50.872;5.306;2023-02-15T07:38:18;19.80;50.60
27188;DHT22;14708;50.872;5.306;2023-02-15T07:40:50;19.90;50.40
27188;DHT22;14708;50.872;5.306;2023-02-15T07:43:15;20.00;51.00
27188;DHT22;14708;50.872;5.306;2023-02-15T07:45:41;20.00;51.20
27188;DHT22;14708;50.872;5.306;2023-02-15T07:48:07;20.00;51.20
27188;DHT22;14708;50.872;5.306;2023-02-15T07:50:33;20.00;51.30
27188;DHT22;14708;50.872;5.306;2023-02-15T07:53:01;20.00;51.30
27188;DHT22;14708;50.872;5.306;2023-02-15T07:55:45;20.00;51.40
27188;DHT22;14708;50.872;5.306;2023-02-15T07:58:10;20.00;51.70
27188;DHT22;14708;50.872;5.306;2023-02-15T08:00:36;20.00;51.90
27188;DHT22;14708;50.872;5.306;2023-02-15T08:03:25;20.00;52.00
27188;DHT22;14708;50.872;5.306;2023-02-15T08:05:59;20.00;52.10
27188;DHT22;14708;50.872;5.306;2023-02-15T08:08:26;19.90;52.20
27188;DHT22;14708;50.872;5.306;2023-02-15T08:14:22;20.00;52.10
27188;DHT22;14708;50.872;5.306;2023-02-15T08:16:51;20.00;51.80
27188;DHT22;14708;50.872;5.306;2023-02-15T08:19:30;20.10;52.70
27188;DHT22;14708;50.872;5.306;2023-02-15T08:22:02;20.10;51.60
27188;DHT22;14708;50.872;5.306;2023-02-15T08:24:30;20.10;51.50
27188;DHT22;14708;50.872;5.306;2023-02-15T08:26:57;20.10;51.50
27188;DHT22;14708;50.872;5.306;2023-02-15T08:29:27;20.20;51.80
27188;DHT22;14708;50.872;5.306;2023-02-15T08:31:55;20.20;51.70
27188;DHT22;14708;50.872;5.306;2023-02-15T08:41:37;20.20;51.40
27188;DHT22;14708;50.872;5.306;2023-02-15T08:44:05;20.20;51.70
27188;DHT22;14708;50.872;5.306;2023-02-15T08:46:34;20.20;51.90
27188;DHT22;14708;50.872;5.306;2023-02-15T08:49:01;20.20;51.90
27188;DHT22;14708;50.872;5.306;2023-02-15T08:51:30;20.20;51.80
27188;DHT22;14708;50.872;5.306;2023-02-15T08:53:58;20.20;52.00
27188;DHT22;14708;50.872;5.306;2023-02-15T08:56:29;20.20;52.20
27188;DHT22;14708;50.872;5.306;2023-02-15T08:58:57;20.20;52.50
27188;DHT22;14708;50.872;5.306;2023-02-15T09:01:28;20.20;52.60
27188;DHT22;14708;50.872;5.306;2023-02-15T09:03:59;20.30;52.70
27188;DHT22;14708;50.872;5.306;2023-02-15T09:10:02;20.20;52.90
27188;DHT22;14708;50.872;5.306;2023-02-15T09:12:28;20.40;53.20
27188;DHT22;14708;50.872;5.306;2023-02-15T09:14:53;20.40;53.10
27188;DHT22;14708;50.872;5.306;2023-02-15T09:17:19;20.50;53.00
27188;DHT22;14708;50.872;5.306;2023-02-15T09:19:45;20.60;53.10
27188;DHT22;14708;50.872;5.306;2023-02-15T09:22:28;20.60;53.00
27188;DHT22;14708;50.872;5.306;2023-02-15T09:24:56;20.60;52.90
27188;DHT22;14708;50.872;5.306;2023-02-15T09:27:22;20.60;52.10
27188;DHT22;14708;50.872;5.306;2023-02-15T09:29:47;20.60;51.80
27188;DHT22;14708;50.872;5.306;2023-02-15T09:32:16;20.60;51.30
27188;DHT22;14708;50.872;5.306;2023-02-15T09:34:42;20.50;50.90
27188;DHT22;14708;50.872;5.306;2023-02-15T09:37:08;20.50;50.00
27188;DHT22;14708;50.872;5.306;2023-02-15T09:39:34;20.40;49.50
27188;DHT22;14708;50.872;5.306;2023-02-15T09:42:09;20.40;49.50
27188;DHT22;14708;50.872;5.306;2023-02-15T09:48:01;20.40;50.20
27188;DHT22;14708;50.872;5.306;2023-02-15T09:50:43;20.40;50.50
27188;DHT22;14708;50.872;5.306;2023-02-15T10:03:09;20.50;50.60
27188;DHT22;14708;50.872;5.306;2023-02-15T10:33:05;20.90;46.60
27188;DHT22;14708;50.872;5.306;2023-02-15T10:45:49;20.90;45.00
27188;DHT22;14708;50.872;5.306;2023-02-15T10:48:31;21.00;45.60
27188;DHT22;14708;50.872;5.306;2023-02-15T10:51:02;21.00;46.30
27188;DHT22;14708;50.872;5.306;2023-02-15T11:03:52;21.00;46.90
27188;DHT22;14708;50.872;5.306;2023-02-15T11:09:44;21.20;47.20
27188;DHT22;14708;50.872;5.306;2023-02-15T11:12:16;21.20;47.20
27188;DHT22;14708;50.872;5.306;2023-02-15T11:17:26;21.20;47.40
27188;DHT22;14708;50.872;5.306;2023-02-15T11:23:16;21.20;47.60
27188;DHT22;14708;50.872;5.306;2023-02-15T11:25:56;21.20;47.60
27188;DHT22;14708;50.872;5.306;2023-02-15T11:28:27;21.20;47.50
27188;DHT22;14708;50.872;5.306;2023-02-15T11:30:55;21.30;47.70
27188;DHT22;14708;50.872;5.306;2023-02-15T11:33:35;21.30;47.90
27188;DHT22;14708;50.872;5.306;2023-02-15T11:47:01;21.70;49.50
27188;DHT22;14708;50.872;5.306;2023-02-15T11:49:28;21.70;49.90
27188;DHT22;14708;50.872;5.306;2023-02-15T11:51:55;21.80;49.80
27188;DHT22;14708;50.872;5.306;2023-02-15T11:54:29;21.80;50.90
27188;DHT22;14708;50.872;5.306;2023-02-15T12:12:37;21.70;51.50
27188;DHT22;14708;50.872;5.306;2023-02-15T12:15:08;21.70;50.80
27188;DHT22;14708;50.872;5.306;2023-02-15T12:18:15;21.70;50.90
27188;DHT22;14708;50.872;5.306;2023-02-15T12:20:43;21.60;51.10
27188;DHT22;14708;50.872;5.306;2023-02-15T12:23:15;21.60;52.10
27188;DHT22;14708;50.872;5.306;2023-02-15T12:25:52;21.70;51.60
27188;DHT22;14708;50.872;5.306;2023-02-15T12:28:23;21.70;51.80
27188;DHT22;14708;50.872;5.306;2023-02-15T12:30:51;21.80;52.00
27188;DHT22;14708;50.872;5.306;2023-02-15T12:35:59;21.90;51.90
27188;DHT22;14708;50.872;5.306;2023-02-15T12:38:27;21.90;51.90
27188;DHT22;14708;50.872;5.306;2023-02-15T12:41:03;21.90;52.00
27188;DHT22;14708;50.872;5.306;2023-02-15T12:43:37;21.90;52.00
27188;DHT22;14708;50.872;5.306;2023-02-15T12:46:24;21.90;51.90
27188;DHT22;14708;50.872;5.306;2023-02-15T12:51:57;21.90;52.10
27188;DHT22;14708;50.872;5.306;2023-02-15T12:54:28;21.90;52.20
27188;DHT22;14708;50.872;5.306;2023-02-15T13:02:51;22.00;52.10
27188;DHT22;14708;50.872;5.306;2023-02-15T13:07:53;22.10;51.80
27188;DHT22;14708;50.872;5.306;2023-02-15T13:12:50;22.30;51.10
27188;DHT22;14708;50.872;5.306;2023-02-15T13:15:35;22.30;51.30
27188;DHT22;14708;50.872;5.306;2023-02-15T13:18:02;22.30;51.50
27188;DHT22;14708;50.872;5.306;2023-02-15T13:20:29;22.30;51.70
27188;DHT22;14708;50.872;5.306;2023-02-15T13:23:12;22.20;51.80
27188;DHT22;14708;50.872;5.306;2023-02-15T13:25:45;22.20;52.10
27188;DHT22;14708;50.872;5.306;2023-02-15T13:28:18;22.20;52.10
27188;DHT22;14708;50.872;5.306;2023-02-15T13:30:49;22.20;52.30
27188;DHT22;14708;50.872;5.306;2023-02-15T13:36:51;22.20;52.30
27188;DHT22;14708;50.872;5.306;2023-02-15T13:39:25;22.10;51.90
27188;DHT22;14708;50.872;5.306;2023-02-15T13:48:18;22.10;52.20
27188;DHT22;14708;50.872;5.306;2023-02-15T14:05:00;22.30;51.50
27188;DHT22;14708;50.872;5.306;2023-02-15T14:16:00;22.20;51.50
27188;DHT22;14708;50.872;5.306;2023-02-15T14:21:19;22.20;51.90
27188;DHT22;14708;50.872;5.306;2023-02-15T14:29:58;21.90;50.90
27188;DHT22;14708;50.872;5.306;2023-02-15T14:32:33;22.00;49.90
27188;DHT22;14708;50.872;5.306;2023-02-15T14:35:03;21.90;49.40
27188;DHT22;14708;50.872;5.306;2023-02-15T14:37:39;21.80;49.60
27188;DHT22;14708;50.872;5.306;2023-02-15T14:47:04;21.80;52.10
27188;DHT22;14708;50.872;5.306;2023-02-15T14:49:36;21.90;52.40
27188;DHT22;14708;50.872;5.306;2023-02-15T14:52:09;21.90;52.80
27188;DHT22;14708;50.872;5.306;2023-02-15T15:06:26;22.00;54.60
27188;DHT22;14708;50.872;5.306;2023-02-15T15:08:58;22.00;55.30
27188;DHT22;14708;50.872;5.306;2023-02-15T15:13:58;22.00;55.60
27188;DHT22;14708;50.872;5.306;2023-02-15T15:16:30;22.00;55.70
27188;DHT22;14708;50.872;5.306;2023-02-15T15:18:57;22.00;55.60
27188;DHT22;14708;50.872;5.306;2023-02-15T15:27:50;22.30;55.50
27188;DHT22;14708;50.872;5.306;2023-02-15T15:32:56;22.40;55.50
27188;DHT22;14708;50.872;5.306;2023-02-15T15:49:21;22.40;56.20
27188;DHT22;14708;50.872;5.306;2023-02-15T15:51:46;22.40;56.30
27188;DHT22;14708;50.872;5.306;2023-02-15T15:54:17;22.30;56.50
27188;DHT22;14708;50.872;5.306;2023-02-15T15:56:48;22.30;55.30
27188;DHT22;14708;50.872;5.306;2023-02-15T15:59:20;22.30;55.60
27188;DHT22;14708;50.872;5.306;2023-02-15T16:01:47;22.20;56.00
27188;DHT22;14708;50.872;5.306;2023-02-15T16:04:23;22.20;56.20
27188;DHT22;14708;50.872;5.306;2023-02-15T16:06:50;22.20;56.50
27188;DHT22;14708;50.872;5.306;2023-02-15T16:09:21;22.20;56.60
27188;DHT22;14708;50.872;5.306;2023-02-15T16:11:57;22.10;56.70
27188;DHT22;14708;50.872;5.306;2023-02-15T16:14:38;22.20;56.90
27188;DHT22;14708;50.872;5.306;2023-02-15T16:17:07;22.10;56.90
27188;DHT22;14708;50.872;5.306;2023-02-15T16:19:40;22.20;56.90
27188;DHT22;14708;50.872;5.306;2023-02-15T16:22:15;22.30;56.80
27188;DHT22;14708;50.872;5.306;2023-02-15T16:27:38;22.50;56.40
27188;DHT22;14708;50.872;5.306;2023-02-15T16:43:33;22.30;51.30
27188;DHT22;14708;50.872;5.306;2023-02-15T16:48:45;22.10;50.90
27188;DHT22;14708;50.872;5.306;2023-02-15T16:51:23;22.00;51.50
27188;DHT22;14708;50.872;5.306;2023-02-15T16:53:50;22.00;53.10
27188;DHT22;14708;50.872;5.306;2023-02-15T16:56:26;21.90;52.10
27188;DHT22;14708;50.872;5.306;2023-02-15T16:58:54;22.00;52.00
27188;DHT22;14708;50.872;5.306;2023-02-15T17:01:22;22.00;52.30
27188;DHT22;14708;50.872;5.306;2023-02-15T17:03:50;22.10;52.30
27188;DHT22;14708;50.872;5.306;2023-02-15T17:06:23;22.10;52.50
27188;DHT22;14708;50.872;5.306;2023-02-15T17:09:04;22.10;52.60
27188;DHT22;14708;50.872;5.306;2023-02-15T17:11:37;22.10;52.90
27188;DHT22;14708;50.872;5.306;2023-02-15T17:16:42;22.20;53.60
27188;DHT22;14708;50.872;5.306;2023-02-15T17:22:25;22.10;53.80
27188;DHT22;14708;50.872;5.306;2023-02-15T17:25:03;22.10;53.60
27188;DHT22;14708;50.872;5.306;2023-02-15T17:27:30;22.00;54.10
27188;DHT22;14708;50.872;5.306;2023-02-15T17:30:00;22.00;54.40
27188;DHT22;14708;50.872;5.306;2023-02-15T17:32:30;22.00;54.50
27188;DHT22;14708;50.872;5.306;2023-02-15T17:35:08;22.00;54.30
27188;DHT22;14708;50.872;5.306;2023-02-15T17:37:44;22.10;54.50
27188;DHT22;14708;50.872;5.306;2023-02-15T17:40:18;22.10;54.50
27188;DHT22;14708;50.872;5.306;2023-02-15T17:42:44;22.10;54.50
27188;DHT22;14708;50.872;5.306;2023-02-15T17:45:13;22.10;54.70
27188;DHT22;14708;50.872;5.306;2023-02-15T17:47:38;22.10;54.90
27188;DHT22;14708;50.872;5.306;2023-02-15T17:50:07;22.20;54.60
27188;DHT22;14708;50.872;5.306;2023-02-15T17:52:33;22.30;54.80
27188;DHT22;14708;50.872;5.306;2023-02-15T17:55:25;22.30;54.80
27188;DHT22;14708;50.872;5.306;2023-02-15T17:58:01;22.30;55.20
27188;DHT22;14708;50.872;5.306;2023-02-15T18:00:28;22.30;55.10
27188;DHT22;14708;50.872;5.306;2023-02-15T18:03:13;22.30;55.10
27188;DHT22;14708;50.872;5.306;2023-02-15T18:05:58;22.30;55.00
27188;DHT22;14708;50.872;5.306;2023-02-15T18:08:43;22.30;55.10
27188;DHT22;14708;50.872;5.306;2023-02-15T18:11:27;22.30;55.40
27188;DHT22;14708;50.872;5.306;2023-02-15T18:14:00;22.30;55.30
27188;DHT22;14708;50.872;5.306;2023-02-15T18:16:29;22.30;55.20
27188;DHT22;14708;50.872;5.306;2023-02-15T18:18:58;22.30;55.30
27188;DHT22;14708;50.872;5.306;2023-02-15T18:21:24;22.20;55.60
27188;DHT22;14708;50.872;5.306;2023-02-15T18:23:50;22.20;55.60
27188;DHT22;14708;50.872;5.306;2023-02-15T18:29:37;22.30;55.80
27188;DHT22;14708;50.872;5.306;2023-02-15T18:32:21;22.30;55.90
27188;DHT22;14708;50.872;5.306;2023-02-15T18:34:48;22.40;55.80
27188;DHT22;14708;50.872;5.306;2023-02-15T18:37:19;22.40;55.90
27188;DHT22;14708;50.872;5.306;2023-02-15T18:39:47;22.40;55.80
27188;DHT22;14708;50.872;5.306;2023-02-15T18:42:33;22.40;56.00
27188;DHT22;14708;50.872;5.306;2023-02-15T18:45:11;22.40;55.90
27188;DHT22;14708;50.872;5.306;2023-02-15T18:47:53;22.40;56.00
27188;DHT22;14708;50.872;5.306;2023-02-15T18:50:20;22.40;55.80
27188;DHT22;14708;50.872;5.306;2023-02-15T18:52:47;22.40;56.00
27188;DHT22;14708;50.872;5.306;2023-02-15T18:55:18;22.40;56.10
27188;DHT22;14708;50.872;5.306;2023-02-15T18:57:48;22.40;56.20
27188;DHT22;14708;50.872;5.306;2023-02-15T19:02:41;22.40;56.20
27188;DHT22;14708;50.872;5.306;2023-02-15T19:05:07;22.50;55.80
27188;DHT22;14708;50.872;5.306;2023-02-15T19:07:36;22.40;55.70
27188;DHT22;14708;50.872;5.306;2023-02-15T19:10:05;22.40;55.70
27188;DHT22;14708;50.872;5.306;2023-02-15T19:12:31;22.50;55.80
27188;DHT22;14708;50.872;5.306;2023-02-15T19:18:33;22.60;55.80
27188;DHT22;14708;50.872;5.306;2023-02-15T19:20:59;22.60;55.80
27188;DHT22;14708;50.872;5.306;2023-02-15T19:23:24;22.60;55.80
27188;DHT22;14708;50.872;5.306;2023-02-15T19:25:51;22.60;55.70
27188;DHT22;14708;50.872;5.306;2023-02-15T19:28:29;22.60;55.60
27188;DHT22;14708;50.872;5.306;2023-02-15T19:30:56;22.60;55.50
27188;DHT22;14708;50.872;5.306;2023-02-15T19:33:22;22.60;55.60
27188;DHT22;14708;50.872;5.306;2023-02-15T19:35:49;22.60;55.60
27188;DHT22;14708;50.872;5.306;2023-02-15T19:41:46;22.60;56.10
27188;DHT22;14708;50.872;5.306;2023-02-15T19:44:12;22.60;56.20
27188;DHT22;14708;50.872;5.306;2023-02-15T19:46:37;22.60;55.60
27188;DHT22;14708;50.872;5.306;2023-02-15T19:49:03;22.50;55.80
27188;DHT22;14708;50.872;5.306;2023-02-15T19:51:29;22.50;55.80
27188;DHT22;14708;50.872;5.306;2023-02-15T20:07:30;22.80;55.40
27188;DHT22;14708;50.872;5.306;2023-02-15T20:09:56;22.70;55.50
27188;DHT22;14708;50.872;5.306;2023-02-15T20:12:24;22.70;55.60
27188;DHT22;14708;50.872;5.306;2023-02-15T20:14:51;22.70;55.70
27188;DHT22;14708;50.872;5.306;2023-02-15T20:17:17;22.70;55.80
27188;DHT22;14708;50.872;5.306;2023-02-15T20:19:42;22.70;55.90
27188;DHT22;14708;50.872;5.306;2023-02-15T20:22:23;22.70;56.00
27188;DHT22;14708;50.872;5.306;2023-02-15T20:24:50;22.60;55.80
27188;DHT22;14708;50.872;5.306;2023-02-15T20:27:23;22.60;55.90
27188;DHT22;14708;50.872;5.306;2023-02-15T20:29:54;22.60;55.90
27188;DHT22;14708;50.872;5.306;2023-02-15T20:32:22;22.60;55.90
27188;DHT22;14708;50.872;5.306;2023-02-15T20:34:48;22.60;56.00
27188;DHT22;14708;50.872;5.306;2023-02-15T20:37:26;22.60;56.00
27188;DHT22;14708;50.872;5.306;2023-02-15T20:39:54;22.60;55.70
27188;DHT22;14708;50.872;5.306;2023-02-15T20:42:19;22.70;55.60
27188;DHT22;14708;50.872;5.306;2023-02-15T20:44:45;22.70;55.60
27188;DHT22;14708;50.872;5.306;2023-02-15T20:47:10;22.80;55.50
27188;DHT22;14708;50.872;5.306;2023-02-15T20:49:36;22.80;55.60
27188;DHT22;14708;50.872;5.306;2023-02-15T20:52:04;22.80;55.70
27188;DHT22;14708;50.872;5.306;2023-02-15T20:54:39;22.80;55.70
27188;DHT22;14708;50.872;5.306;2023-02-15T20:57:04;22.80;55.60
27188;DHT22;14708;50.872;5.306;2023-02-15T20:59:32;22.80;55.60
27188;DHT22;14708;50.872;5.306;2023-02-15T21:02:00;22.80;55.70
27188;DHT22;14708;50.872;5.306;2023-02-15T21:04:31;22.80;55.70
27188;DHT22;14708;50.872;5.306;2023-02-15T21:06:59;22.80;55.70
27188;DHT22;14708;50.872;5.306;2023-02-15T21:09:25;22.80;55.80
27188;DHT22;14708;50.872;5.306;2023-02-15T21:22:12;22.80;55.30
27188;DHT22;14708;50.872;5.306;2023-02-15T21:24:39;22.80;54.20
27188;DHT22;14708;50.872;5.306;2023-02-15T21:27:11;22.80;54.50
27188;DHT22;14708;50.872;5.306;2023-02-15T21:29:37;22.80;54.90
27188;DHT22;14708;50.872;5.306;2023-02-15T21:32:03;22.70;55.10
27188;DHT22;14708;50.872;5.306;2023-02-15T21:34:30;22.70;55.10
27188;DHT22;14708;50.872;5.306;2023-02-15T21:36:55;22.60;55.30
27188;DHT22;14708;50.872;5.306;2023-02-15T21:39:23;22.60;55.30
27188;DHT22;14708;50.872;5.306;2023-02-15T21:41:51;22.50;55.40
27188;DHT22;14708;50.872;5.306;2023-02-15T21:44:35;22.40;55.30
27188;DHT22;14708;50.872;5.306;2023-02-15T21:47:34;22.40;55.50
27188;DHT22;14708;50.872;5.306;2023-02-15T21:50:24;22.40;55.50
27188;DHT22;14708;50.872;5.306;2023-02-15T21:53:12;22.20;55.70
27188;DHT22;14708;50.872;5.306;2023-02-15T21:55:38;22.20;55.70
27188;DHT22;14708;50.872;5.306;2023-02-15T21:58:04;22.10;55.70
27188;DHT22;14708;50.872;5.306;2023-02-15T22:00:30;22.10;55.80
27188;DHT22;14708;50.872;5.306;2023-02-15T22:02:57;22.10;55.60
27188;DHT22;14708;50.872;5.306;2023-02-15T22:05:27;22.10;55.70
27188;DHT22;14708;50.872;5.306;2023-02-15T22:07:54;22.00;55.50
27188;DHT22;14708;50.872;5.306;2023-02-15T22:10:20;22.00;55.60
27188;DHT22;14708;50.872;5.306;2023-02-15T22:12:45;22.00;55.60
27188;DHT22;14708;50.872;5.306;2023-02-15T22:15:27;21.90;55.70
27188;DHT22;14708;50.872;5.306;2023-02-15T22:17:53;21.90;55.70
27188;DHT22;14708;50.872;5.306;2023-02-15T22:20:21;21.80;55.80
27188;DHT22;14708;50.872;5.306;2023-02-15T22:22:48;21.80;55.70
27188;DHT22;14708;50.872;5.306;2023-02-15T22:25:16;21.80;56.00
27188;DHT22;14708;50.872;5.306;2023-02-15T22:34:32;21.70;56.10
27188;DHT22;14708;50.872;5.306;2023-02-15T22:36:58;21.70;56.10